Candor, North Carolina
Current Conditions -  °F | °C
As of 11:15 PM on Tuesday 25 Nov 2014 (Local Time) from KSOP Reporting Station
Overcast Overcast  
Wind Chill: 48°   Ceiling: 1100
Heat Index: 48°   Visibility: 5mi
Dew Point: -4°   Wind: 3mph
Humidity: 11%   Direction: 40°NE
Pressure: 30.03"   Gusts: NA
Location:  35.3°N, 79.75°W
Report Text: KSOP 260415Z AUTO 04003KT 5SM BKN011 BKN022 OVC028 09/M20 A3003 RMK AO1 P0003
Loading
Personal Weather Stations






























Interactive Weather Map New forecast layout! Learn more

10-Day Weather Forecast

Advertisements
Track Severe Weather on mobile